sensor_id;sensor_type;location;lat;lon;timestamp;P1;durP1;ratioP1;P2;durP2;ratioP2
71777;SDS011;59609;52.430;4.668;2023-04-03T00:01:09;2.35;;;1.60;;
71777;SDS011;59609;52.430;4.668;2023-04-03T00:03:35;1.85;;;1.35;;
71777;SDS011;59609;52.430;4.668;2023-04-03T00:06:01;3.28;;;1.75;;
71777;SDS011;59609;52.430;4.668;2023-04-03T00:08:27;1.88;;;1.27;;
71777;SDS011;59609;52.430;4.668;2023-04-03T00:10:55;3.13;;;1.20;;
71777;SDS011;59609;52.430;4.668;2023-04-03T00:13:20;1.75;;;1.35;;
71777;SDS011;59609;52.430;4.668;2023-04-03T00:15:46;2.97;;;1.50;;
71777;SDS011;59609;52.430;4.668;2023-04-03T00:18:11;1.98;;;1.50;;
71777;SDS011;59609;52.430;4.668;2023-04-03T00:20:37;3.88;;;1.80;;
71777;SDS011;59609;52.430;4.668;2023-04-03T00:23:02;2.35;;;1.80;;
71777;SDS011;59609;52.430;4.668;2023-04-03T00:25:28;4.20;;;2.22;;
71777;SDS011;59609;52.430;4.668;2023-04-03T00:27:53;3.85;;;2.13;;
71777;SDS011;59609;52.430;4.668;2023-04-03T00:30:20;2.38;;;2.15;;
71777;SDS011;59609;52.430;4.668;2023-04-03T00:32:49;2.70;;;2.15;;
71777;SDS011;59609;52.430;4.668;2023-04-03T00:35:16;3.45;;;2.38;;
71777;SDS011;59609;52.430;4.668;2023-04-03T00:37:42;2.45;;;1.77;;
71777;SDS011;59609;52.430;4.668;2023-04-03T00:40:08;4.93;;;2.25;;
71777;SDS011;59609;52.430;4.668;2023-04-03T00:42:39;3.00;;;1.83;;
71777;SDS011;59609;52.430;4.668;2023-04-03T00:47:30;2.53;;;1.90;;
71777;SDS011;59609;52.430;4.668;2023-04-03T00:49:57;2.80;;;1.58;;
71777;SDS011;59609;52.430;4.668;2023-04-03T00:52:25;2.55;;;1.90;;
71777;SDS011;59609;52.430;4.668;2023-04-03T00:54:56;2.10;;;1.60;;
71777;SDS011;59609;52.430;4.668;2023-04-03T00:57:26;4.90;;;1.70;;
71777;SDS011;59609;52.430;4.668;2023-04-03T00:59:57;2.40;;;1.50;;
71777;SDS011;59609;52.430;4.668;2023-04-03T01:02:27;2.45;;;1.38;;
71777;SDS011;59609;52.430;4.668;2023-04-03T01:04:52;3.50;;;1.70;;
71777;SDS011;59609;52.430;4.668;2023-04-03T01:07:21;2.08;;;1.63;;
71777;SDS011;59609;52.430;4.668;2023-04-03T01:09:50;2.03;;;1.38;;
71777;SDS011;59609;52.430;4.668;2023-04-03T01:14:50;3.75;;;1.15;;
71777;SDS011;59609;52.430;4.668;2023-04-03T01:17:42;2.70;;;1.50;;
71777;SDS011;59609;52.430;4.668;2023-04-03T01:25:35;1.55;;;1.40;;
71777;SDS011;59609;52.430;4.668;2023-04-03T01:28:06;1.83;;;1.20;;
71777;SDS011;59609;52.430;4.668;2023-04-03T01:30:36;3.47;;;1.40;;
71777;SDS011;59609;52.430;4.668;2023-04-03T01:33:07;1.73;;;1.17;;
71777;SDS011;59609;52.430;4.668;2023-04-03T01:35:33;1.45;;;1.35;;
71777;SDS011;59609;52.430;4.668;2023-04-03T01:37:58;3.13;;;1.48;;
71777;SDS011;59609;52.430;4.668;2023-04-03T01:40:24;5.95;;;1.50;;
71777;SDS011;59609;52.430;4.668;2023-04-03T01:42:50;1.90;;;1.40;;
71777;SDS011;59609;52.430;4.668;2023-04-03T01:45:15;3.00;;;1.10;;
71777;SDS011;59609;52.430;4.668;2023-04-03T01:47:41;4.25;;;1.60;;
71777;SDS011;59609;52.430;4.668;2023-04-03T01:50:06;3.13;;;1.15;;
71777;SDS011;59609;52.430;4.668;2023-04-03T01:52:32;2.10;;;1.20;;
71777;SDS011;59609;52.430;4.668;2023-04-03T01:54:57;2.47;;;1.20;;
71777;SDS011;59609;52.430;4.668;2023-04-03T01:57:23;2.42;;;1.20;;
71777;SDS011;59609;52.430;4.668;2023-04-03T01:59:48;2.03;;;1.30;;
71777;SDS011;59609;52.430;4.668;2023-04-03T02:02:13;2.80;;;1.70;;
71777;SDS011;59609;52.430;4.668;2023-04-03T02:04:39;3.63;;;1.33;;
71777;SDS011;59609;52.430;4.668;2023-04-03T02:07:05;4.45;;;1.77;;
71777;SDS011;59609;52.430;4.668;2023-04-03T02:09:31;2.95;;;1.30;;
71777;SDS011;59609;52.430;4.668;2023-04-03T02:11:56;4.63;;;1.55;;
71777;SDS011;59609;52.430;4.668;2023-04-03T02:14:22;9.43;;;1.63;;
71777;SDS011;59609;52.430;4.668;2023-04-03T02:16:48;2.13;;;1.52;;
71777;SDS011;59609;52.430;4.668;2023-04-03T02:19:14;3.40;;;1.40;;
71777;SDS011;59609;52.430;4.668;2023-04-03T02:21:39;4.28;;;0.90;;
71777;SDS011;59609;52.430;4.668;2023-04-03T02:24:05;4.13;;;1.02;;
71777;SDS011;59609;52.430;4.668;2023-04-03T02:26:31;1.52;;;1.00;;
71777;SDS011;59609;52.430;4.668;2023-04-03T02:28:56;2.13;;;1.40;;
71777;SDS011;59609;52.430;4.668;2023-04-03T02:31:21;3.35;;;1.40;;
71777;SDS011;59609;52.430;4.668;2023-04-03T02:33:47;2.88;;;1.38;;
71777;SDS011;59609;52.430;4.668;2023-04-03T02:36:13;4.65;;;1.70;;
71777;SDS011;59609;52.430;4.668;2023-04-03T02:38:40;3.83;;;1.63;;
71777;SDS011;59609;52.430;4.668;2023-04-03T02:41:06;3.30;;;1.85;;
71777;SDS011;59609;52.430;4.668;2023-04-03T02:43:34;3.33;;;1.95;;
71777;SDS011;59609;52.430;4.668;2023-04-03T02:45:59;6.05;;;1.67;;
71777;SDS011;59609;52.430;4.668;2023-04-03T02:48:25;2.67;;;1.23;;
71777;SDS011;59609;52.430;4.668;2023-04-03T02:50:51;2.88;;;1.30;;
71777;SDS011;59609;52.430;4.668;2023-04-03T02:53:17;3.53;;;1.45;;
71777;SDS011;59609;52.430;4.668;2023-04-03T02:55:43;2.58;;;1.38;;
71777;SDS011;59609;52.430;4.668;2023-04-03T02:58:09;2.65;;;1.40;;
71777;SDS011;59609;52.430;4.668;2023-04-03T03:00:35;5.53;;;1.60;;
71777;SDS011;59609;52.430;4.668;2023-04-03T03:03:00;4.38;;;1.63;;
71777;SDS011;59609;52.430;4.668;2023-04-03T03:05:28;2.53;;;1.60;;
71777;SDS011;59609;52.430;4.668;2023-04-03T03:07:53;3.03;;;1.70;;
71777;SDS011;59609;52.430;4.668;2023-04-03T03:10:19;3.45;;;1.63;;
71777;SDS011;59609;52.430;4.668;2023-04-03T03:12:45;5.25;;;1.58;;
71777;SDS011;59609;52.430;4.668;2023-04-03T03:15:11;2.10;;;1.30;;
71777;SDS011;59609;52.430;4.668;2023-04-03T03:17:37;3.75;;;1.55;;
71777;SDS011;59609;52.430;4.668;2023-04-03T03:20:03;3.80;;;1.52;;
71777;SDS011;59609;52.430;4.668;2023-04-03T03:22:29;3.05;;;1.55;;
71777;SDS011;59609;52.430;4.668;2023-04-03T03:24:55;3.85;;;1.73;;
71777;SDS011;59609;52.430;4.668;2023-04-03T03:27:20;5.10;;;1.45;;
71777;SDS011;59609;52.430;4.668;2023-04-03T03:29:45;3.85;;;1.48;;
71777;SDS011;59609;52.430;4.668;2023-04-03T03:32:14;4.10;;;1.52;;
71777;SDS011;59609;52.430;4.668;2023-04-03T03:34:40;2.53;;;1.45;;
71777;SDS011;59609;52.430;4.668;2023-04-03T03:37:05;11.15;;;1.88;;
71777;SDS011;59609;52.430;4.668;2023-04-03T03:39:30;4.97;;;1.25;;
71777;SDS011;59609;52.430;4.668;2023-04-03T03:41:56;2.95;;;1.50;;
71777;SDS011;59609;52.430;4.668;2023-04-03T03:44:21;3.58;;;1.73;;
71777;SDS011;59609;52.430;4.668;2023-04-03T03:46:46;4.75;;;1.58;;
71777;SDS011;59609;52.430;4.668;2023-04-03T03:49:12;2.78;;;1.95;;
71777;SDS011;59609;52.430;4.668;2023-04-03T03:51:38;2.92;;;2.10;;
71777;SDS011;59609;52.430;4.668;2023-04-03T03:54:04;4.07;;;1.70;;
71777;SDS011;59609;52.430;4.668;2023-04-03T03:56:30;4.88;;;1.92;;
71777;SDS011;59609;52.430;4.668;2023-04-03T03:58:55;4.72;;;2.22;;
71777;SDS011;59609;52.430;4.668;2023-04-03T04:01:21;6.25;;;1.80;;
71777;SDS011;59609;52.430;4.668;2023-04-03T04:03:48;3.63;;;1.98;;
71777;SDS011;59609;52.430;4.668;2023-04-03T04:06:14;2.28;;;1.42;;
71777;SDS011;59609;52.430;4.668;2023-04-03T04:08:39;3.83;;;1.83;;
71777;SDS011;59609;52.430;4.668;2023-04-03T04:11:05;4.38;;;1.88;;
71777;SDS011;59609;52.430;4.668;2023-04-03T04:13:30;2.33;;;1.80;;
71777;SDS011;59609;52.430;4.668;2023-04-03T04:15:56;3.08;;;2.00;;
71777;SDS011;59609;52.430;4.668;2023-04-03T04:18:21;3.28;;;1.98;;
71777;SDS011;59609;52.430;4.668;2023-04-03T04:20:47;3.72;;;1.88;;
71777;SDS011;59609;52.430;4.668;2023-04-03T04:23:13;2.45;;;1.75;;
71777;SDS011;59609;52.430;4.668;2023-04-03T04:25:39;4.47;;;1.90;;
71777;SDS011;59609;52.430;4.668;2023-04-03T04:28:05;4.15;;;2.08;;
71777;SDS011;59609;52.430;4.668;2023-04-03T04:30:33;3.38;;;1.92;;
71777;SDS011;59609;52.430;4.668;2023-04-03T04:32:58;2.67;;;1.70;;
71777;SDS011;59609;52.430;4.668;2023-04-03T04:35:26;4.70;;;2.33;;
71777;SDS011;59609;52.430;4.668;2023-04-03T04:37:51;6.30;;;1.95;;
71777;SDS011;59609;52.430;4.668;2023-04-03T04:40:17;4.28;;;1.67;;
71777;SDS011;59609;52.430;4.668;2023-04-03T04:42:43;4.85;;;1.73;;
71777;SDS011;59609;52.430;4.668;2023-04-03T04:45:08;4.55;;;1.63;;
71777;SDS011;59609;52.430;4.668;2023-04-03T04:47:34;2.72;;;1.48;;
71777;SDS011;59609;52.430;4.668;2023-04-03T04:49:59;8.48;;;1.90;;
71777;SDS011;59609;52.430;4.668;2023-04-03T04:52:24;3.40;;;2.08;;
71777;SDS011;59609;52.430;4.668;2023-04-03T04:54:50;5.47;;;1.60;;
71777;SDS011;59609;52.430;4.668;2023-04-03T04:57:15;3.35;;;2.03;;
71777;SDS011;59609;52.430;4.668;2023-04-03T04:59:40;4.55;;;2.13;;
71777;SDS011;59609;52.430;4.668;2023-04-03T05:02:06;3.85;;;1.90;;
71777;SDS011;59609;52.430;4.668;2023-04-03T05:04:31;5.15;;;2.58;;
71777;SDS011;59609;52.430;4.668;2023-04-03T05:06:58;3.50;;;2.00;;
71777;SDS011;59609;52.430;4.668;2023-04-03T05:09:24;3.55;;;2.30;;
71777;SDS011;59609;52.430;4.668;2023-04-03T05:11:49;3.47;;;2.25;;
71777;SDS011;59609;52.430;4.668;2023-04-03T05:14:15;3.33;;;2.33;;
71777;SDS011;59609;52.430;4.668;2023-04-03T05:16:41;6.47;;;2.40;;
71777;SDS011;59609;52.430;4.668;2023-04-03T05:19:06;4.53;;;2.45;;
71777;SDS011;59609;52.430;4.668;2023-04-03T05:21:32;4.60;;;2.05;;
71777;SDS011;59609;52.430;4.668;2023-04-03T05:23:58;5.85;;;2.00;;
71777;SDS011;59609;52.430;4.668;2023-04-03T05:26:24;2.60;;;1.85;;
71777;SDS011;59609;52.430;4.668;2023-04-03T05:28:51;3.42;;;1.92;;
71777;SDS011;59609;52.430;4.668;2023-04-03T05:31:16;3.08;;;2.00;;
71777;SDS011;59609;52.430;4.668;2023-04-03T05:33:42;3.80;;;2.08;;
71777;SDS011;59609;52.430;4.668;2023-04-03T05:36:07;4.15;;;2.03;;
71777;SDS011;59609;52.430;4.668;2023-04-03T05:38:33;3.90;;;2.17;;
71777;SDS011;59609;52.430;4.668;2023-04-03T05:40:58;3.67;;;2.05;;
71777;SDS011;59609;52.430;4.668;2023-04-03T05:43:24;4.78;;;2.22;;
71777;SDS011;59609;52.430;4.668;2023-04-03T05:45:50;4.22;;;2.70;;
71777;SDS011;59609;52.430;4.668;2023-04-03T05:48:16;3.53;;;2.35;;
71777;SDS011;59609;52.430;4.668;2023-04-03T05:50:42;3.60;;;2.15;;
71777;SDS011;59609;52.430;4.668;2023-04-03T05:53:12;2.50;;;2.30;;
71777;SDS011;59609;52.430;4.668;2023-04-03T05:55:43;4.05;;;2.83;;
71777;SDS011;59609;52.430;4.668;2023-04-03T05:58:08;6.10;;;2.88;;
71777;SDS011;59609;52.430;4.668;2023-04-03T06:00:33;4.63;;;2.63;;
71777;SDS011;59609;52.430;4.668;2023-04-03T06:02:59;3.97;;;2.63;;
71777;SDS011;59609;52.430;4.668;2023-04-03T06:05:24;7.47;;;2.60;;
71777;SDS011;59609;52.430;4.668;2023-04-03T06:07:49;3.67;;;2.35;;
71777;SDS011;59609;52.430;4.668;2023-04-03T06:10:15;4.60;;;2.30;;
71777;SDS011;59609;52.430;4.668;2023-04-03T06:12:41;2.63;;;2.35;;
71777;SDS011;59609;52.430;4.668;2023-04-03T06:15:06;6.93;;;2.20;;
71777;SDS011;59609;52.430;4.668;2023-04-03T06:17:34;7.25;;;1.98;;
71777;SDS011;59609;52.430;4.668;2023-04-03T06:20:01;7.57;;;2.97;;
71777;SDS011;59609;52.430;4.668;2023-04-03T06:22:26;5.28;;;2.40;;
71777;SDS011;59609;52.430;4.668;2023-04-03T06:24:54;5.47;;;2.47;;
71777;SDS011;59609;52.430;4.668;2023-04-03T06:27:20;3.20;;;2.70;;
71777;SDS011;59609;52.430;4.668;2023-04-03T06:29:45;5.90;;;2.20;;
71777;SDS011;59609;52.430;4.668;2023-04-03T06:32:11;2.95;;;1.80;;
71777;SDS011;59609;52.430;4.668;2023-04-03T06:34:36;4.63;;;2.50;;
71777;SDS011;59609;52.430;4.668;2023-04-03T06:37:02;2.78;;;1.83;;
71777;SDS011;59609;52.430;4.668;2023-04-03T06:39:27;6.07;;;2.83;;
71777;SDS011;59609;52.430;4.668;2023-04-03T06:41:52;2.90;;;2.00;;
71777;SDS011;59609;52.430;4.668;2023-04-03T06:44:18;3.75;;;2.30;;
71777;SDS011;59609;52.430;4.668;2023-04-03T06:46:43;6.72;;;2.58;;
71777;SDS011;59609;52.430;4.668;2023-04-03T06:49:11;3.47;;;2.50;;
71777;SDS011;59609;52.430;4.668;2023-04-03T06:51:37;4.03;;;2.08;;
71777;SDS011;59609;52.430;4.668;2023-04-03T06:54:03;3.53;;;2.40;;
71777;SDS011;59609;52.430;4.668;2023-04-03T06:56:29;3.28;;;2.05;;
71777;SDS011;59609;52.430;4.668;2023-04-03T06:58:55;4.28;;;2.40;;
71777;SDS011;59609;52.430;4.668;2023-04-03T07:01:22;4.57;;;2.30;;
71777;SDS011;59609;52.430;4.668;2023-04-03T07:03:49;4.75;;;2.42;;
71777;SDS011;59609;52.430;4.668;2023-04-03T07:06:16;4.20;;;2.33;;
71777;SDS011;59609;52.430;4.668;2023-04-03T07:08:42;3.58;;;2.17;;
71777;SDS011;59609;52.430;4.668;2023-04-03T07:11:09;5.18;;;2.17;;
71777;SDS011;59609;52.430;4.668;2023-04-03T07:13:35;6.45;;;2.42;;
71777;SDS011;59609;52.430;4.668;2023-04-03T07:16:01;2.35;;;2.15;;
71777;SDS011;59609;52.430;4.668;2023-04-03T07:18:28;3.33;;;1.92;;
71777;SDS011;59609;52.430;4.668;2023-04-03T07:20:54;4.10;;;1.95;;
71777;SDS011;59609;52.430;4.668;2023-04-03T07:23:20;3.28;;;2.15;;
71777;SDS011;59609;52.430;4.668;2023-04-03T07:25:47;5.13;;;2.40;;
71777;SDS011;59609;52.430;4.668;2023-04-03T07:28:14;4.32;;;1.88;;
71777;SDS011;59609;52.430;4.668;2023-04-03T07:30:47;2.50;;;2.05;;
71777;SDS011;59609;52.430;4.668;2023-04-03T07:33:17;3.63;;;1.63;;
71777;SDS011;59609;52.430;4.668;2023-04-03T07:35:43;1.70;;;1.60;;
71777;SDS011;59609;52.430;4.668;2023-04-03T07:38:09;3.80;;;2.00;;
71777;SDS011;59609;52.430;4.668;2023-04-03T07:40:35;2.88;;;1.52;;
71777;SDS011;59609;52.430;4.668;2023-04-03T07:43:02;2.90;;;1.40;;
71777;SDS011;59609;52.430;4.668;2023-04-03T07:45:27;5.95;;;1.90;;
71777;SDS011;59609;52.430;4.668;2023-04-03T07:47:53;5.85;;;1.65;;
71777;SDS011;59609;52.430;4.668;2023-04-03T07:50:18;6.18;;;1.98;;
71777;SDS011;59609;52.430;4.668;2023-04-03T07:52:44;3.33;;;1.95;;
71777;SDS011;59609;52.430;4.668;2023-04-03T07:55:10;4.50;;;2.15;;
71777;SDS011;59609;52.430;4.668;2023-04-03T07:57:36;3.17;;;1.83;;
71777;SDS011;59609;52.430;4.668;2023-04-03T08:00:03;3.20;;;1.80;;
71777;SDS011;59609;52.430;4.668;2023-04-03T08:02:29;1.60;;;1.50;;
71777;SDS011;59609;52.430;4.668;2023-04-03T08:04:56;3.47;;;1.67;;
71777;SDS011;59609;52.430;4.668;2023-04-03T08:07:23;4.63;;;1.88;;
71777;SDS011;59609;52.430;4.668;2023-04-03T08:09:48;2.10;;;1.60;;
71777;SDS011;59609;52.430;4.668;2023-04-03T08:12:14;4.65;;;1.85;;
71777;SDS011;59609;52.430;4.668;2023-04-03T08:14:40;3.97;;;1.60;;
71777;SDS011;59609;52.430;4.668;2023-04-03T08:17:05;4.32;;;1.85;;
71777;SDS011;59609;52.430;4.668;2023-04-03T08:19:34;6.07;;;2.03;;
71777;SDS011;59609;52.430;4.668;2023-04-03T08:22:00;3.35;;;1.92;;
71777;SDS011;59609;52.430;4.668;2023-04-03T08:24:28;2.35;;;1.45;;
71777;SDS011;59609;52.430;4.668;2023-04-03T08:26:53;3.42;;;1.70;;
71777;SDS011;59609;52.430;4.668;2023-04-03T08:29:19;5.00;;;1.85;;
71777;SDS011;59609;52.430;4.668;2023-04-03T08:31:46;4.15;;;1.80;;
71777;SDS011;59609;52.430;4.668;2023-04-03T08:34:11;3.80;;;1.83;;
71777;SDS011;59609;52.430;4.668;2023-04-03T08:36:38;4.53;;;2.40;;
71777;SDS011;59609;52.430;4.668;2023-04-03T08:39:03;1.90;;;1.35;;
71777;SDS011;59609;52.430;4.668;2023-04-03T08:49:28;3.00;;;1.85;;
71777;SDS011;59609;52.430;4.668;2023-04-03T08:51:57;3.00;;;1.83;;
71777;SDS011;59609;52.430;4.668;2023-04-03T08:54:30;3.13;;;1.83;;
71777;SDS011;59609;52.430;4.668;2023-04-03T08:56:59;3.53;;;2.42;;
71777;SDS011;59609;52.430;4.668;2023-04-03T08:59:29;4.63;;;1.33;;
71777;SDS011;59609;52.430;4.668;2023-04-03T09:01:58;4.22;;;1.83;;
71777;SDS011;59609;52.430;4.668;2023-04-03T09:04:27;2.17;;;1.70;;
71777;SDS011;59609;52.430;4.668;2023-04-03T09:06:58;5.18;;;1.80;;
71777;SDS011;59609;52.430;4.668;2023-04-03T09:09:40;3.13;;;1.85;;
71777;SDS011;59609;52.430;4.668;2023-04-03T09:20:54;2.50;;;1.83;;
71777;SDS011;59609;52.430;4.668;2023-04-03T09:29:01;5.38;;;1.80;;
71777;SDS011;59609;52.430;4.668;2023-04-03T09:31:38;1.63;;;1.52;;
71777;SDS011;59609;52.430;4.668;2023-04-03T09:34:08;2.45;;;1.73;;
71777;SDS011;59609;52.430;4.668;2023-04-03T09:36:44;2.50;;;1.50;;
71777;SDS011;59609;52.430;4.668;2023-04-03T09:39:16;2.65;;;1.60;;
71777;SDS011;59609;52.430;4.668;2023-04-03T09:44:24;2.95;;;1.60;;
71777;SDS011;59609;52.430;4.668;2023-04-03T09:46:54;2.08;;;1.48;;
71777;SDS011;59609;52.430;4.668;2023-04-03T09:49:20;1.65;;;1.52;;
71777;SDS011;59609;52.430;4.668;2023-04-03T09:51:46;2.33;;;1.52;;
71777;SDS011;59609;52.430;4.668;2023-04-03T09:54:25;3.08;;;1.92;;
71777;SDS011;59609;52.430;4.668;2023-04-03T09:56:56;2.78;;;1.30;;
71777;SDS011;59609;52.430;4.668;2023-04-03T09:59:28;1.75;;;1.50;;
71777;SDS011;59609;52.430;4.668;2023-04-03T10:01:57;2.05;;;1.08;;
71777;SDS011;59609;52.430;4.668;2023-04-03T10:04:24;1.40;;;1.30;;
71777;SDS011;59609;52.430;4.668;2023-04-03T10:06:54;3.30;;;1.10;;
71777;SDS011;59609;52.430;4.668;2023-04-03T10:19:46;4.57;;;1.60;;
71777;SDS011;59609;52.430;4.668;2023-04-03T10:22:20;4.38;;;1.42;;
71777;SDS011;59609;52.430;4.668;2023-04-03T10:32:58;1.40;;;1.30;;
71777;SDS011;59609;52.430;4.668;2023-04-03T10:35:35;1.55;;;1.27;;
71777;SDS011;59609;52.430;4.668;2023-04-03T10:38:18;2.35;;;1.10;;
71777;SDS011;59609;52.430;4.668;2023-04-03T10:41:02;1.70;;;1.40;;
71777;SDS011;59609;52.430;4.668;2023-04-03T10:57:06;1.65;;;1.10;;
71777;SDS011;59609;52.430;4.668;2023-04-03T10:59:48;1.48;;;1.20;;
71777;SDS011;59609;52.430;4.668;2023-04-03T11:02:22;1.27;;;1.17;;
71777;SDS011;59609;52.430;4.668;2023-04-03T11:05:18;1.10;;;0.77;;
71777;SDS011;59609;52.430;4.668;2023-04-03T11:07:55;2.40;;;1.27;;
71777;SDS011;59609;52.430;4.668;2023-04-03T11:13:30;1.40;;;1.30;;
71777;SDS011;59609;52.430;4.668;2023-04-03T11:16:00;2.38;;;1.42;;
71777;SDS011;59609;52.430;4.668;2023-04-03T11:18:32;3.70;;;1.27;;
71777;SDS011;59609;52.430;4.668;2023-04-03T11:21:28;2.63;;;1.20;;
71777;SDS011;59609;52.430;4.668;2023-04-03T11:24:04;1.23;;;1.13;;
71777;SDS011;59609;52.430;4.668;2023-04-03T11:26:38;1.17;;;1.08;;
71777;SDS011;59609;52.430;4.668;2023-04-03T11:29:09;1.40;;;1.10;;
71777;SDS011;59609;52.430;4.668;2023-04-03T11:31:46;2.20;;;1.65;;
71777;SDS011;59609;52.430;4.668;2023-04-03T11:34:40;1.63;;;1.30;;
71777;SDS011;59609;52.430;4.668;2023-04-03T11:39:45;3.03;;;1.65;;
71777;SDS011;59609;52.430;4.668;2023-04-03T11:42:17;2.50;;;1.20;;
71777;SDS011;59609;52.430;4.668;2023-04-03T11:45:15;1.50;;;1.40;;
71777;SDS011;59609;52.430;4.668;2023-04-03T12:05:55;1.25;;;1.15;;
71777;SDS011;59609;52.430;4.668;2023-04-03T12:16:27;1.40;;;1.27;;
71777;SDS011;59609;52.430;4.668;2023-04-03T12:37:07;2.03;;;1.40;;
71777;SDS011;59609;52.430;4.668;2023-04-03T12:47:48;1.90;;;1.35;;
71777;SDS011;59609;52.430;4.668;2023-04-03T12:50:17;1.95;;;1.30;;
71777;SDS011;59609;52.430;4.668;2023-04-03T12:53:05;4.90;;;1.83;;
71777;SDS011;59609;52.430;4.668;2023-04-03T12:55:36;1.80;;;1.30;;
71777;SDS011;59609;52.430;4.668;2023-04-03T13:03:28;1.05;;;1.00;;
71777;SDS011;59609;52.430;4.668;2023-04-03T13:05:55;2.22;;;1.30;;
71777;SDS011;59609;52.430;4.668;2023-04-03T13:08:23;2.78;;;1.45;;
71777;SDS011;59609;52.430;4.668;2023-04-03T13:10:54;1.95;;;1.48;;
71777;SDS011;59609;52.430;4.668;2023-04-03T13:13:23;2.17;;;1.40;;
71777;SDS011;59609;52.430;4.668;2023-04-03T13:15:49;1.88;;;1.77;;
71777;SDS011;59609;52.430;4.668;2023-04-03T13:18:26;2.30;;;1.30;;
71777;SDS011;59609;52.430;4.668;2023-04-03T13:20:52;1.33;;;1.23;;
71777;SDS011;59609;52.430;4.668;2023-04-03T13:23:23;1.80;;;1.30;;
71777;SDS011;59609;52.430;4.668;2023-04-03T13:25:50;5.50;;;1.30;;
71777;SDS011;59609;52.430;4.668;2023-04-03T13:28:20;2.03;;;1.30;;
71777;SDS011;59609;52.430;4.668;2023-04-03T13:36:22;2.67;;;1.80;;
71777;SDS011;59609;52.430;4.668;2023-04-03T13:39:00;2.45;;;1.60;;
71777;SDS011;59609;52.430;4.668;2023-04-03T13:41:32;3.38;;;1.30;;
71777;SDS011;59609;52.430;4.668;2023-04-03T13:44:16;2.25;;;1.80;;
71777;SDS011;59609;52.430;4.668;2023-04-03T13:46:48;1.58;;;1.48;;
71777;SDS011;59609;52.430;4.668;2023-04-03T13:49:36;1.85;;;1.38;;
71777;SDS011;59609;52.430;4.668;2023-04-03T14:05:48;2.47;;;1.55;;
71777;SDS011;59609;52.430;4.668;2023-04-03T14:08:14;1.98;;;1.70;;
71777;SDS011;59609;52.430;4.668;2023-04-03T14:10:39;2.05;;;1.13;;
71777;SDS011;59609;52.430;4.668;2023-04-03T14:13:05;2.42;;;1.42;;
71777;SDS011;59609;52.430;4.668;2023-04-03T14:15:31;2.15;;;1.45;;
71777;SDS011;59609;52.430;4.668;2023-04-03T14:17:57;1.55;;;1.38;;
71777;SDS011;59609;52.430;4.668;2023-04-03T14:20:26;3.22;;;1.80;;
71777;SDS011;59609;52.430;4.668;2023-04-03T14:22:52;1.23;;;1.13;;
71777;SDS011;59609;52.430;4.668;2023-04-03T14:25:19;1.83;;;1.60;;
71777;SDS011;59609;52.430;4.668;2023-04-03T14:27:48;2.33;;;1.60;;
71777;SDS011;59609;52.430;4.668;2023-04-03T14:30:17;1.92;;;1.55;;
71777;SDS011;59609;52.430;4.668;2023-04-03T14:32:46;1.98;;;0.90;;
71777;SDS011;59609;52.430;4.668;2023-04-03T14:35:12;3.03;;;1.70;;
71777;SDS011;59609;52.430;4.668;2023-04-03T14:37:38;2.78;;;1.52;;
71777;SDS011;59609;52.430;4.668;2023-04-03T14:40:04;3.67;;;1.80;;
71777;SDS011;59609;52.430;4.668;2023-04-03T14:42:33;1.50;;;1.40;;
71777;SDS011;59609;52.430;4.668;2023-04-03T14:45:01;1.83;;;1.20;;
71777;SDS011;59609;52.430;4.668;2023-04-03T14:47:28;3.38;;;2.10;;
71777;SDS011;59609;52.430;4.668;2023-04-03T14:49:55;2.10;;;1.83;;
71777;SDS011;59609;52.430;4.668;2023-04-03T14:52:28;2.58;;;1.73;;
71777;SDS011;59609;52.430;4.668;2023-04-03T14:54:56;2.15;;;1.30;;
71777;SDS011;59609;52.430;4.668;2023-04-03T14:57:23;2.30;;;1.73;;
71777;SDS011;59609;52.430;4.668;2023-04-03T14:59:51;1.75;;;1.40;;
71777;SDS011;59609;52.430;4.668;2023-04-03T15:02:32;2.50;;;1.67;;
71777;SDS011;59609;52.430;4.668;2023-04-03T15:05:00;2.65;;;1.50;;
71777;SDS011;59609;52.430;4.668;2023-04-03T15:07:29;2.38;;;1.63;;
71777;SDS011;59609;52.430;4.668;2023-04-03T15:09:59;2.05;;;1.20;;
71777;SDS011;59609;52.430;4.668;2023-04-03T15:12:27;1.60;;;1.20;;
71777;SDS011;59609;52.430;4.668;2023-04-03T15:14:53;3.05;;;1.73;;
71777;SDS011;59609;52.430;4.668;2023-04-03T15:17:19;3.85;;;1.15;;
71777;SDS011;59609;52.430;4.668;2023-04-03T15:19:47;1.48;;;1.20;;
71777;SDS011;59609;52.430;4.668;2023-04-03T15:22:16;1.60;;;1.50;;
71777;SDS011;59609;52.430;4.668;2023-04-03T15:24:43;3.13;;;1.70;;
71777;SDS011;59609;52.430;4.668;2023-04-03T15:27:10;2.53;;;1.70;;
71777;SDS011;59609;52.430;4.668;2023-04-03T15:29:37;2.92;;;1.10;;
71777;SDS011;59609;52.430;4.668;2023-04-03T15:32:03;1.83;;;1.42;;
71777;SDS011;59609;52.430;4.668;2023-04-03T15:34:29;2.00;;;1.80;;
71777;SDS011;59609;52.430;4.668;2023-04-03T15:36:55;1.38;;;1.27;;
71777;SDS011;59609;52.430;4.668;2023-04-03T15:39:20;1.50;;;1.40;;
71777;SDS011;59609;52.430;4.668;2023-04-03T15:41:47;3.13;;;1.90;;
71777;SDS011;59609;52.430;4.668;2023-04-03T15:44:13;6.40;;;1.45;;
71777;SDS011;59609;52.430;4.668;2023-04-03T15:46:38;5.75;;;1.88;;
71777;SDS011;59609;52.430;4.668;2023-04-03T15:49:04;3.67;;;1.75;;
71777;SDS011;59609;52.430;4.668;2023-04-03T15:51:30;4.40;;;1.52;;
71777;SDS011;59609;52.430;4.668;2023-04-03T15:53:56;3.65;;;1.77;;
71777;SDS011;59609;52.430;4.668;2023-04-03T15:56:21;2.92;;;1.55;;
71777;SDS011;59609;52.430;4.668;2023-04-03T15:58:47;1.42;;;1.30;;
71777;SDS011;59609;52.430;4.668;2023-04-03T16:01:12;2.05;;;1.63;;
71777;SDS011;59609;52.430;4.668;2023-04-03T16:03:39;1.55;;;1.45;;
71777;SDS011;59609;52.430;4.668;2023-04-03T16:06:10;2.53;;;1.50;;
71777;SDS011;59609;52.430;4.668;2023-04-03T16:08:37;1.48;;;1.38;;
71777;SDS011;59609;52.430;4.668;2023-04-03T16:11:02;3.35;;;1.67;;
71777;SDS011;59609;52.430;4.668;2023-04-03T16:13:28;2.17;;;1.63;;
71777;SDS011;59609;52.430;4.668;2023-04-03T16:15:54;2.55;;;1.63;;
71777;SDS011;59609;52.430;4.668;2023-04-03T16:18:20;3.30;;;1.70;;
71777;SDS011;59609;52.430;4.668;2023-04-03T16:20:45;1.58;;;1.48;;
71777;SDS011;59609;52.430;4.668;2023-04-03T16:23:11;2.00;;;1.80;;
71777;SDS011;59609;52.430;4.668;2023-04-03T16:25:37;3.70;;;1.20;;
71777;SDS011;59609;52.430;4.668;2023-04-03T16:28:03;2.28;;;1.52;;
71777;SDS011;59609;52.430;4.668;2023-04-03T16:30:28;2.67;;;1.45;;
71777;SDS011;59609;52.430;4.668;2023-04-03T16:32:54;4.78;;;1.75;;
71777;SDS011;59609;52.430;4.668;2023-04-03T16:35:20;3.22;;;1.70;;
71777;SDS011;59609;52.430;4.668;2023-04-03T16:37:46;1.63;;;1.10;;
71777;SDS011;59609;52.430;4.668;2023-04-03T16:40:11;2.60;;;2.35;;
71777;SDS011;59609;52.430;4.668;2023-04-03T16:42:37;2.45;;;1.98;;
71777;SDS011;59609;52.430;4.668;2023-04-03T16:45:03;1.85;;;1.75;;
71777;SDS011;59609;52.430;4.668;2023-04-03T16:47:29;1.75;;;1.60;;
71777;SDS011;59609;52.430;4.668;2023-04-03T16:49:55;3.63;;;1.90;;
71777;SDS011;59609;52.430;4.668;2023-04-03T16:52:20;2.38;;;1.75;;
71777;SDS011;59609;52.430;4.668;2023-04-03T16:54:46;3.38;;;1.92;;
71777;SDS011;59609;52.430;4.668;2023-04-03T16:57:11;2.47;;;2.28;;
71777;SDS011;59609;52.430;4.668;2023-04-03T16:59:37;3.35;;;2.10;;
71777;SDS011;59609;52.430;4.668;2023-04-03T17:02:02;4.10;;;1.85;;
71777;SDS011;59609;52.430;4.668;2023-04-03T17:04:28;2.25;;;1.70;;
71777;SDS011;59609;52.430;4.668;2023-04-03T17:06:54;2.40;;;2.10;;
71777;SDS011;59609;52.430;4.668;2023-04-03T17:09:19;5.30;;;2.10;;
71777;SDS011;59609;52.430;4.668;2023-04-03T17:11:46;3.70;;;1.60;;
71777;SDS011;59609;52.430;4.668;2023-04-03T17:14:11;3.38;;;1.55;;
71777;SDS011;59609;52.430;4.668;2023-04-03T17:16:37;2.58;;;1.40;;
71777;SDS011;59609;52.430;4.668;2023-04-03T17:19:03;3.75;;;1.50;;
71777;SDS011;59609;52.430;4.668;2023-04-03T17:21:29;3.42;;;1.33;;